createdAt,value
2016-04-21T11:37:09.902Z,155
2016-04-21T11:38:10.451Z,155
2016-04-21T11:39:11.735Z,150
2016-04-21T11:40:10.332Z,155
2016-04-21T11:41:10.241Z,150
2016-04-21T11:42:11.244Z,150
2016-04-21T11:43:11.512Z,150
2016-04-21T11:44:10.296Z,150
2016-04-21T11:45:11.205Z,150
2016-04-21T11:46:11.521Z,150
2016-04-21T11:47:10.023Z,150
2016-04-21T11:48:11.212Z,150
2016-04-21T11:49:11.496Z,150
2016-04-21T11:50:10.890Z,150
2016-04-21T11:51:11.049Z,150
2016-04-21T11:52:11.662Z,150
2016-04-21T11:53:11.273Z,150
2016-04-21T11:54:11.541Z,150
2016-04-21T11:55:09.903Z,150
2016-04-21T11:56:11.078Z,150
2016-04-21T11:57:11.190Z,155
2016-04-21T11:58:10.318Z,150
2016-04-21T11:59:11.367Z,150
2016-04-21T12:00:11.370Z,150
2016-04-21T12:01:11.763Z,150
2016-04-21T12:02:11.235Z,150
2016-04-21T12:03:10.878Z,150
2016-04-21T12:04:11.600Z,150
2016-04-21T12:05:11.228Z,150
2016-04-21T12:06:10.042Z,150
2016-04-21T12:07:11.639Z,150
2016-04-21T12:08:11.282Z,145
2016-04-21T12:09:11.207Z,150
2016-04-21T12:10:11.491Z,150
2016-04-21T12:11:10.165Z,145
2016-04-21T12:12:11.340Z,145
2016-04-21T12:13:10.030Z,145
2016-04-21T12:14:11.251Z,145
2016-04-21T12:15:10.973Z,145
2016-04-21T12:16:11.413Z,145
2016-04-21T12:17:11.447Z,145
2016-04-21T12:18:18.949Z,145
2016-04-21T12:19:10.374Z,145
2016-04-21T12:20:12.158Z,145
2016-04-21T12:21:10.098Z,145
2016-04-21T12:22:10.085Z,145
2016-04-21T12:23:11.541Z,145
2016-04-21T12:24:09.935Z,145
2016-04-21T12:25:10.172Z,145
2016-04-21T12:26:10.081Z,145
2016-04-21T12:27:10.989Z,145
2016-04-21T12:28:10.259Z,150
2016-04-21T12:29:09.948Z,150
2016-04-21T12:30:11.185Z,145
2016-04-21T12:31:10.063Z,145
2016-04-21T12:32:10.941Z,145
2016-04-21T12:33:11.459Z,145
2016-04-21T12:34:10.430Z,145
2016-04-21T12:35:11.777Z,145
2016-04-21T12:36:10.341Z,145
2016-04-21T12:37:10.954Z,145
2016-04-21T12:38:10.519Z,145
2016-04-21T12:39:11.069Z,145
2016-04-21T12:40:10.587Z,145
2016-04-21T12:41:10.902Z,145
2016-04-21T12:42:11.218Z,145
2016-04-21T12:43:11.127Z,145
2016-04-21T12:44:10.004Z,145
2016-04-21T12:45:10.210Z,145
2016-04-21T12:46:09.868Z,145
2016-04-21T12:47:21.996Z,145
2016-04-21T12:48:10.890Z,145
2016-04-21T12:49:11.423Z,145
2016-04-21T12:50:11.052Z,145
2016-04-21T12:51:11.070Z,145
2016-04-21T12:52:11.870Z,145
2016-04-21T12:53:10.951Z,145
2016-04-21T12:54:20.750Z,145
2016-04-21T12:55:11.643Z,145
2016-04-21T12:56:09.817Z,145
2016-04-21T12:57:11.445Z,145
2016-04-21T12:58:11.557Z,145
2016-04-21T12:59:10.951Z,145
2016-04-21T13:00:11.595Z,145
2016-04-21T13:01:11.394Z,145
2016-04-21T13:02:09.912Z,145
2016-04-21T13:03:11.431Z,145
2016-04-21T13:04:20.417Z,145
2016-04-21T13:05:10.779Z,145
2016-04-21T13:06:19.360Z,145
2016-04-21T13:07:18.300Z,145
2016-04-21T13:08:10.350Z,145
2016-04-21T13:09:10.774Z,145
2016-04-21T13:10:11.355Z,145
2016-04-21T13:11:11.358Z,145
2016-04-21T13:12:10.064Z,145
2016-04-21T13:13:10.488Z,145
2016-04-21T13:14:11.553Z,145
2016-04-21T13:15:10.838Z,145
2016-04-21T13:16:10.074Z,145
2016-04-21T13:17:11.015Z,145
2016-04-21T13:18:10.908Z,145
2016-04-21T13:19:10.317Z,145
2016-04-21T13:20:12.554Z,145
2016-04-21T13:21:11.416Z,145
2016-04-21T13:22:10.435Z,140
2016-04-21T13:23:10.563Z,140
2016-04-21T13:24:11.518Z,140
2016-04-21T13:25:10.614Z,140
2016-04-21T13:26:09.742Z,140
2016-04-21T13:27:11.009Z,140
2016-04-21T13:28:10.420Z,140
2016-04-21T13:29:11.703Z,140
2016-04-21T13:30:19.628Z,140
2016-04-21T13:31:10.178Z,140
2016-04-21T13:32:21.228Z,140
2016-04-21T13:33:10.730Z,140
2016-04-21T13:34:11.123Z,140
2016-04-21T13:35:10.689Z,140
2016-04-21T13:36:10.503Z,140
2016-04-21T13:37:11.178Z,140
2016-04-21T13:38:09.805Z,140
2016-04-21T13:39:10.636Z,140
2016-04-21T13:40:11.092Z,140
2016-04-21T13:41:11.017Z,140
2016-04-21T13:42:11.114Z,140
2016-04-21T13:43:11.788Z,140
2016-04-21T13:44:09.962Z,140
2016-04-21T13:45:10.764Z,140
2016-04-21T13:46:11.298Z,140
2016-04-21T13:47:11.051Z,140
2016-04-21T13:48:10.913Z,140
2016-04-21T13:49:10.322Z,140
2016-04-21T13:50:09.871Z,140
2016-04-21T13:51:10.748Z,140
2016-04-21T13:52:09.861Z,140
2016-04-21T13:53:12.786Z,140
2016-04-21T13:55:18.962Z,140
2016-04-21T13:56:09.825Z,140
2016-04-21T13:57:09.484Z,140
2016-04-21T13:58:10.861Z,140
2016-04-21T13:59:10.755Z,140
2016-04-21T14:00:18.897Z,140
2016-04-21T14:01:10.651Z,140
2016-04-21T14:02:10.981Z,140
2016-04-21T14:03:10.719Z,140
2016-04-21T14:04:11.135Z,140
2016-04-21T14:05:11.106Z,140
2016-04-21T14:06:10.733Z,140
2016-04-21T14:07:11.001Z,140
2016-04-21T14:08:10.004Z,140
2016-04-21T14:09:10.554Z,140
2016-04-21T14:10:10.979Z,140
2016-04-21T14:11:20.168Z,140
2016-04-21T14:12:10.781Z,140
2016-04-21T14:13:11.111Z,140
2016-04-21T14:14:09.927Z,140
2016-04-21T14:15:10.742Z,140
2016-04-21T14:16:11.025Z,140
2016-04-21T14:17:09.669Z,140
2016-04-21T14:18:10.578Z,140
2016-04-21T14:19:10.659Z,140
2016-04-21T14:20:10.458Z,140
2016-04-21T14:21:10.556Z,140
2016-04-21T14:22:09.792Z,140
2016-04-21T14:23:10.617Z,140
2016-04-21T14:24:09.526Z,145
2016-04-21T14:25:09.841Z,140
2016-04-21T14:26:10.343Z,140
2016-04-21T14:27:10.285Z,140
2016-04-21T14:28:10.396Z,140
2016-04-21T14:29:09.696Z,140
2016-04-21T14:30:09.402Z,140
2016-04-21T14:31:09.467Z,140
2016-04-21T14:32:09.829Z,140
2016-04-21T14:33:09.082Z,140
2016-04-21T14:34:09.522Z,140
2016-04-21T14:35:09.634Z,135
2016-04-21T14:36:09.542Z,140
2016-04-21T14:37:09.873Z,140
2016-04-21T14:38:11.095Z,140
2016-04-21T14:39:09.411Z,135
2016-04-21T14:40:09.178Z,135
2016-04-21T14:41:09.383Z,135
2016-04-21T14:42:11.122Z,135
2016-04-21T14:43:09.592Z,135
2016-04-21T14:44:09.955Z,135
2016-04-21T14:45:09.458Z,135
2016-04-21T14:46:09.538Z,135
2016-04-21T14:47:09.525Z,135
2016-04-21T14:48:10.528Z,135
2016-04-21T14:49:09.688Z,135
2016-04-21T14:50:09.502Z,135
2016-04-21T14:51:09.489Z,135
2016-04-21T14:52:09.586Z,135
2016-04-21T14:53:09.494Z,135
2016-04-21T14:54:09.606Z,135
2016-04-21T14:55:18.734Z,135
2016-04-21T14:56:10.299Z,135
2016-04-21T14:57:10.380Z,135
2016-04-21T14:58:13.415Z,135
2016-04-21T14:59:11.168Z,135
2016-04-21T15:00:10.545Z,135
2016-04-21T15:01:19.000Z,135
2016-04-21T15:02:09.879Z,135
2016-04-21T15:03:09.334Z,135
2016-04-21T15:04:09.446Z,135
2016-04-21T15:05:09.402Z,135
2016-04-21T15:06:10.389Z,135
2016-04-21T15:07:10.861Z,135
2016-04-21T15:08:10.456Z,135
2016-04-21T15:09:10.444Z,135
2016-04-21T15:10:10.462Z,135
2016-04-21T15:11:09.950Z,135
2016-04-21T15:12:10.311Z,135
2016-04-21T15:13:11.033Z,135
2016-04-21T15:14:19.755Z,135
2016-04-21T15:15:12.741Z,135
2016-04-21T15:16:09.822Z,135
2016-04-21T15:17:10.262Z,130
2016-04-21T15:18:11.640Z,135
2016-04-21T15:19:10.721Z,135
2016-04-21T15:20:10.271Z,130
2016-04-21T15:22:10.291Z,130
2016-04-21T15:23:10.904Z,130
2016-04-21T15:24:08.890Z,130
2016-04-21T15:25:10.534Z,130
2016-04-21T15:26:10.537Z,130
2016-04-21T15:27:09.258Z,130
2016-04-21T15:28:10.385Z,130
2016-04-21T15:29:10.810Z,130
2016-04-21T15:30:10.251Z,130
2016-04-21T15:31:09.785Z,130
2016-04-21T15:32:09.318Z,125
2016-04-21T15:33:10.211Z,130
2016-04-21T15:34:09.387Z,130
2016-04-21T15:35:10.264Z,130
2016-04-21T15:36:09.939Z,125
2016-04-21T15:37:09.504Z,120
2016-04-21T15:39:10.478Z,115
2016-04-21T15:40:09.934Z,115
2016-04-21T15:41:09.468Z,115
2016-04-21T15:42:10.283Z,120
2016-04-21T15:43:09.520Z,125
2016-04-21T15:44:10.194Z,125
2016-04-21T15:45:10.541Z,125
2016-04-21T15:47:10.155Z,125
2016-04-21T15:48:10.424Z,125
2016-04-21T15:49:09.552Z,125
2016-04-21T15:50:10.147Z,125
2016-04-21T15:51:10.822Z,125
2016-04-21T15:52:10.185Z,125
2016-04-21T15:53:10.203Z,125
2016-04-21T15:54:09.112Z,125
2016-04-21T15:55:10.474Z,125
2016-04-21T15:56:10.539Z,125
2016-04-21T15:57:10.417Z,125
2016-04-21T15:58:09.404Z,125
2016-04-21T15:59:09.376Z,125
2016-04-21T16:00:10.175Z,120
2016-04-21T16:01:09.240Z,120
2016-04-21T16:02:10.415Z,125
2016-04-21T16:03:20.995Z,125
2016-04-21T16:04:09.249Z,125
2016-04-21T16:05:10.157Z,130
2016-04-21T16:06:09.145Z,125
2016-04-21T16:07:09.475Z,125
2016-04-21T16:08:10.196Z,125
2016-04-21T16:09:10.120Z,120
2016-04-21T16:10:09.420Z,120
2016-04-21T16:11:10.533Z,120
2016-04-21T16:12:10.410Z,115
2016-04-21T16:13:20.132Z,115
2016-04-21T16:14:10.103Z,115
2016-04-21T16:15:09.340Z,120
2016-04-21T16:16:09.202Z,115
2016-04-21T16:17:10.345Z,115
2016-04-21T16:18:10.020Z,115
2016-04-21T16:19:09.211Z,115
2016-04-21T16:20:10.089Z,115
2016-04-21T16:21:10.153Z,115
2016-04-21T16:22:18.937Z,115
2016-04-21T16:23:10.283Z,115
2016-04-21T16:24:09.114Z,115
2016-04-21T16:25:10.070Z,115
2016-04-21T16:26:10.666Z,115
2016-04-21T16:27:10.701Z,115
2016-04-21T16:28:10.297Z,115
2016-04-21T16:29:10.690Z,110
2016-04-21T16:30:09.865Z,110
2016-04-21T16:31:09.149Z,110
2016-04-21T16:32:09.433Z,110
2016-04-21T16:33:09.810Z,110
2016-04-21T16:34:10.235Z,110
2016-04-21T16:35:11.504Z,110
2016-04-21T16:36:18.179Z,110
2016-04-21T16:37:08.915Z,105
2016-04-21T16:38:09.059Z,110
2016-04-21T16:39:10.248Z,105
2016-04-21T16:40:09.001Z,110
2016-04-21T16:41:09.191Z,105
2016-04-21T16:42:10.617Z,110
2016-04-21T16:43:09.947Z,105
2016-04-21T16:44:08.965Z,105
2016-04-21T16:45:09.030Z,105
2016-04-21T16:46:17.970Z,100
2016-04-21T16:47:09.895Z,100
2016-04-21T16:48:10.336Z,100
2016-04-21T16:49:10.056Z,100
2016-04-21T16:50:09.372Z,100
2016-04-21T16:51:09.906Z,100
2016-04-21T16:52:09.081Z,100
2016-04-21T16:53:09.099Z,100
2016-04-21T16:54:09.039Z,100
2016-04-21T16:55:09.729Z,100
2016-04-21T16:56:09.060Z,95
2016-04-21T16:57:08.875Z,100
2016-04-21T16:58:09.534Z,100
2016-04-21T16:59:09.865Z,95
2016-04-21T17:00:10.008Z,95
2016-04-21T17:01:09.308Z,95
2016-04-21T17:02:11.826Z,95
2016-04-21T17:03:10.266Z,95
2016-04-21T17:04:09.926Z,95
2016-04-21T17:05:09.115Z,95
2016-04-21T17:06:09.665Z,90
2016-04-21T17:07:09.871Z,90
2016-04-21T17:08:29.233Z,90
2016-04-21T17:09:09.017Z,90
2016-04-21T17:10:09.051Z,90
2016-04-21T17:11:09.851Z,90
2016-04-21T17:12:10.150Z,85
2016-04-21T17:13:09.917Z,85
2016-04-21T17:14:08.889Z,85
2016-04-21T17:15:09.705Z,85
2016-04-21T17:16:10.270Z,85
2016-04-21T17:17:08.866Z,80
2016-04-21T17:18:09.994Z,80
2016-04-21T17:19:10.341Z,80
2016-04-21T17:20:09.406Z,80
2016-04-21T17:21:08.892Z,80
2016-04-21T17:22:10.177Z,75
2016-04-21T17:23:09.820Z,75
2016-04-21T17:24:09.261Z,75
2016-04-21T17:25:17.528Z,75
2016-04-21T17:26:08.656Z,75
2016-04-21T17:27:09.988Z,70
2016-04-21T17:28:08.724Z,70
2016-04-21T17:29:09.821Z,70
2016-04-21T17:30:09.604Z,70
2016-04-21T17:31:08.763Z,70
2016-04-21T17:32:08.954Z,65
2016-04-21T17:33:08.457Z,65
2016-04-21T17:35:08.696Z,60
2016-04-21T17:36:08.465Z,60
2016-04-21T17:37:08.639Z,60
2016-04-21T17:38:08.860Z,60
2016-04-21T17:39:08.629Z,55
2016-04-21T17:40:08.569Z,55
2016-04-21T17:41:08.540Z,55
2016-04-21T17:42:08.543Z,50
2016-04-21T17:43:08.515Z,50
2016-04-21T17:44:08.501Z,50
2016-04-21T17:45:09.926Z,45
2016-04-21T17:46:22.241Z,45
2016-04-21T17:47:08.792Z,45
2016-04-21T17:48:09.637Z,45
2016-04-21T17:49:09.531Z,40
2016-04-21T17:50:10.080Z,40
2016-04-21T17:51:17.817Z,40
2016-04-21T17:52:09.836Z,35
2016-04-21T17:53:09.728Z,35
2016-04-21T17:54:09.653Z,35
2016-04-21T17:55:09.953Z,30
2016-04-21T17:56:09.768Z,30
2016-04-21T17:57:09.693Z,30
2016-04-21T17:58:08.664Z,30
2016-04-21T17:59:08.682Z,25
2016-04-21T18:00:09.748Z,25
2016-04-21T18:01:09.485Z,25
2016-04-21T18:02:09.799Z,20
2016-04-21T18:03:09.663Z,15
2016-04-21T18:04:09.776Z,20
2016-04-21T18:05:10.107Z,20
2016-04-21T18:06:10.251Z,15
2016-04-21T18:07:08.659Z,15
2016-04-21T18:08:08.678Z,15
2016-04-21T18:09:09.462Z,15
2016-04-21T18:10:10.386Z,10
2016-04-21T18:11:09.029Z,10
2016-04-21T18:12:09.423Z,10
2016-04-21T18:13:09.363Z,10
2016-04-21T18:14:08.584Z,10
2016-04-21T18:15:09.836Z,5
2016-04-21T18:16:09.575Z,5
2016-04-21T18:17:09.487Z,5
2016-04-21T18:18:09.240Z,5
2016-04-21T18:19:08.835Z,5
2016-04-21T18:20:09.510Z,5
2016-04-21T18:21:09.874Z,5
2016-04-21T18:22:10.423Z,5
2016-04-21T18:23:18.614Z,0
2016-04-21T18:24:09.304Z,0
2016-04-21T18:25:08.852Z,0
2016-04-21T18:26:10.137Z,0
2016-04-21T18:27:08.296Z,0
2016-04-21T18:28:09.657Z,0
2016-04-21T18:29:18.113Z,0
2016-04-21T18:30:20.866Z,0
2016-04-21T18:31:08.448Z,0
2016-04-21T18:32:08.403Z,0
2016-04-21T18:33:09.343Z,0
2016-04-21T18:34:09.315Z,0
2016-04-21T18:35:08.333Z,0
2016-04-21T18:36:08.414Z,0
2016-04-21T18:37:08.714Z,0
2016-04-21T18:38:08.357Z,0
2016-04-21T18:39:09.234Z,0
2016-04-21T18:40:08.425Z,0
2016-04-21T18:41:08.193Z,0
2016-04-21T18:42:09.461Z,0
2016-04-21T18:43:08.511Z,0
2016-04-21T18:44:09.045Z,0
2016-04-21T18:45:09.361Z,0
2016-04-21T18:46:08.269Z,0
2016-04-21T18:47:09.662Z,0
2016-04-21T18:48:08.228Z,0
2016-04-21T18:49:08.558Z,0
2016-04-21T18:50:09.264Z,0
2016-04-21T18:51:26.642Z,0
2016-04-21T18:52:08.708Z,0
2016-04-21T18:53:08.350Z,0
2016-04-21T18:54:08.227Z,0
2016-04-21T18:55:39.028Z,0
2016-04-21T18:57:08.204Z,0
2016-04-21T18:58:08.941Z,0
2016-04-21T18:59:09.273Z,0
2016-04-21T19:00:09.010Z,0
2016-04-21T19:01:19.154Z,0
2016-04-21T19:02:20.218Z,0
2016-04-21T19:03:09.346Z,0
2016-04-21T19:04:09.307Z,0
2016-04-21T19:05:09.059Z,0
2016-04-21T19:06:09.093Z,0
2016-04-21T19:07:09.408Z,0
2016-04-21T19:08:09.270Z,0
2016-04-21T19:09:09.539Z,0
2016-04-21T19:10:09.604Z,0
2016-04-21T19:11:09.716Z,0
2016-04-21T19:12:09.234Z,0
2016-04-21T19:13:08.894Z,0
2016-04-21T19:14:09.240Z,0
2016-04-21T19:15:08.945Z,0
2016-04-21T19:16:09.423Z,0
2016-04-21T19:17:09.418Z,0
2016-04-21T19:18:09.304Z,0
2016-04-21T19:19:09.767Z,0
2016-04-21T19:20:09.575Z,0
2016-04-21T19:21:09.442Z,0
2016-04-21T19:22:09.209Z,0
2016-04-21T19:23:09.136Z,0
2016-04-21T19:24:17.278Z,0
2016-04-21T19:25:08.264Z,0
2016-04-21T19:26:09.936Z,0
2016-04-21T19:27:08.755Z,0
2016-04-21T19:28:08.123Z,0
2016-04-21T19:29:08.303Z,0
2016-04-21T19:31:08.130Z,0
2016-04-21T19:32:08.462Z,0
2016-04-21T19:33:10.077Z,0
2016-04-21T19:34:09.159Z,0
2016-04-21T19:35:08.242Z,0
2016-04-21T19:36:09.997Z,0
2016-04-21T19:37:09.468Z,0
2016-04-21T19:38:08.892Z,0
2016-04-21T19:39:09.287Z,0
2016-04-21T19:40:19.446Z,0
2016-04-21T19:41:15.042Z,0
2016-04-21T19:42:09.218Z,0
2016-04-21T19:43:08.049Z,0
2016-04-21T19:44:08.146Z,0
2016-04-21T19:45:08.805Z,0
2016-04-21T19:46:09.277Z,0
2016-04-21T19:47:08.999Z,0
2016-04-21T19:48:19.594Z,0
2016-04-21T19:49:08.957Z,0
2016-04-21T19:50:08.991Z,0
2016-04-21T19:51:08.822Z,0
2016-04-21T19:52:09.324Z,0
2016-04-21T19:53:08.858Z,0
2016-04-21T19:54:18.377Z,0
2016-04-21T19:55:08.785Z,0
2016-04-21T19:56:08.318Z,0
2016-04-21T19:57:08.837Z,0
2016-04-21T19:58:08.357Z,0
2016-04-21T19:59:09.874Z,0
2016-04-21T20:00:08.767Z,0
2016-04-21T20:02:00.989Z,0
2016-04-21T20:03:39.713Z,0
2016-04-21T20:04:57.920Z,0
2016-04-21T20:06:18.127Z,0
2016-04-21T20:07:37.099Z,0
2016-04-21T20:08:56.305Z,0
2016-04-21T20:10:16.373Z,0
2016-04-21T20:11:26.735Z,0
2016-04-21T20:12:50.221Z,0
2016-04-21T20:13:51.147Z,0
2016-04-21T20:15:01.696Z,0
2016-04-21T20:16:23.045Z,0
2016-04-21T20:17:46.532Z,0
2016-04-21T20:19:09.097Z,0
2016-04-21T20:20:28.868Z,0
2016-04-21T20:21:50.903Z,0
2016-04-21T20:23:10.283Z,0
2016-04-21T20:24:20.599Z,0
2016-04-21T20:25:38.304Z,0
2016-04-21T20:26:59.932Z,0
2016-04-21T20:28:19.468Z,0
2016-04-21T20:29:37.908Z,0
2016-04-21T20:30:55.551Z,0
2016-04-21T20:31:10.835Z,0
2016-04-21T20:32:12.276Z,0
2016-04-21T20:33:12.294Z,0
2016-04-21T20:34:12.218Z,0
2016-04-21T20:35:12.283Z,0
2016-04-21T20:36:12.255Z,0
2016-04-21T20:37:12.336Z,0
2016-04-21T20:38:19.353Z,0
2016-04-21T20:39:10.997Z,0
2016-04-21T20:40:11.047Z,0
2016-04-21T20:41:11.800Z,0
2016-04-21T20:42:10.708Z,0
2016-04-21T20:43:10.961Z,0
2016-04-21T20:44:10.855Z,0
2016-04-21T20:45:10.780Z,0
2016-04-21T20:46:10.986Z,0
2016-04-21T20:47:10.847Z,0
2016-04-21T20:48:10.849Z,0
2016-04-21T20:50:20.246Z,0
2016-04-21T20:51:11.858Z,0
2016-04-21T20:52:19.344Z,0
2016-04-21T20:53:10.673Z,0
2016-04-21T20:54:11.179Z,0
2016-04-21T20:55:11.197Z,0
2016-04-21T20:56:10.635Z,0
2016-04-21T20:57:12.093Z,0
2016-04-21T20:58:22.267Z,0
2016-04-21T20:59:10.989Z,0
2016-04-21T21:00:10.989Z,0
2016-04-21T21:01:12.197Z,0
2016-04-21T21:02:11.746Z,0
2016-04-21T21:04:23.784Z,0
2016-04-21T21:05:11.442Z,0
2016-04-21T21:06:11.632Z,0
2016-04-21T21:07:11.620Z,0
2016-04-21T21:09:11.028Z,0
2016-04-21T21:10:10.703Z,0
2016-04-21T21:11:11.943Z,0
2016-04-21T21:12:11.867Z,0
2016-04-21T21:13:22.261Z,0
2016-04-21T21:14:11.936Z,0
2016-04-21T21:15:11.420Z,0
2016-04-21T21:16:11.406Z,0
2016-04-21T21:17:10.472Z,0
2016-04-21T21:18:11.506Z,0
2016-04-21T21:19:11.322Z,0
2016-04-21T21:20:12.014Z,0
2016-04-21T21:21:11.202Z,0
2016-04-21T21:22:11.880Z,0
2016-04-21T21:23:11.505Z,0
2016-04-21T21:24:11.616Z,0
2016-04-21T21:26:22.046Z,0
2016-04-21T21:27:11.640Z,0
2016-04-21T21:28:19.270Z,0
2016-04-21T21:29:10.535Z,0
2016-04-21T21:30:11.804Z,0
2016-04-21T21:31:11.526Z,0
2016-04-21T21:32:13.281Z,0
2016-04-21T21:33:11.765Z,0
2016-04-21T21:34:11.643Z,0
2016-04-21T21:35:12.005Z,0
2016-04-21T21:36:10.273Z,0
2016-04-21T21:37:11.213Z,0
2016-04-21T21:38:10.420Z,0
2016-04-21T21:39:10.500Z,0
2016-04-21T21:40:10.378Z,0
2016-04-21T21:42:11.086Z,0
2016-04-21T21:43:10.917Z,0
2016-04-21T21:44:10.200Z,0
2016-04-21T21:45:10.125Z,0
2016-04-21T21:46:10.206Z,0
2016-04-21T21:47:11.569Z,0
2016-04-21T21:49:10.464Z,0
2016-04-21T21:50:49.892Z,0
2016-04-21T21:52:32.303Z,0
2016-04-21T21:54:17.294Z,0
2016-04-21T21:55:54.077Z,0
2016-04-21T21:57:32.083Z,0
2016-04-21T21:59:09.132Z,0
2016-04-21T22:00:47.746Z,0
2016-04-21T22:02:21.252Z,0
2016-04-21T22:04:03.677Z,0
2016-04-21T22:05:36.416Z,0
2016-04-21T22:07:15.953Z,0
2016-04-21T22:08:50.393Z,0
2016-04-21T22:10:07.818Z,0
2016-04-21T22:11:37.682Z,0
2016-04-21T22:13:20.610Z,0
2016-04-21T22:15:07.409Z,0
2016-04-21T22:16:45.555Z,0
2016-04-21T22:18:09.495Z,0
2016-04-21T22:18:34.545Z,0
2016-04-21T22:19:25.142Z,0
2016-04-21T22:20:25.691Z,0
2016-04-21T22:21:26.255Z,0
2016-04-21T22:22:26.290Z,0
2016-04-21T22:23:33.152Z,0
2016-04-21T22:24:35.405Z,0
2016-04-21T22:25:34.877Z,0
2016-04-21T22:26:24.879Z,0
2016-04-21T22:27:26.132Z,0
2016-04-21T22:28:25.025Z,0
2016-04-21T22:29:24.855Z,0
2016-04-21T22:30:26.124Z,0
2016-04-21T22:31:24.971Z,0
2016-04-21T22:32:26.302Z,0
2016-04-21T22:33:26.148Z,0
2016-04-21T22:34:25.338Z,0
2016-04-21T22:35:25.590Z,0
2016-04-21T22:36:25.906Z,0
2016-04-21T22:37:24.971Z,0
2016-04-21T22:38:32.662Z,0
2016-04-21T22:39:26.665Z,0
2016-04-21T22:40:35.729Z,0
2016-04-21T22:41:47.373Z,0
2016-04-21T22:42:24.703Z,0
2016-04-21T22:43:26.190Z,0
2016-04-21T22:44:32.818Z,0
2016-04-21T22:45:26.039Z,0
2016-04-21T22:47:25.811Z,0
2016-04-21T22:48:24.579Z,0
2016-04-21T22:49:25.175Z,0
2016-04-21T22:50:34.662Z,0
2016-04-21T22:51:24.461Z,0
2016-04-21T22:52:26.527Z,0
2016-04-21T22:53:25.014Z,0
2016-04-21T22:54:25.829Z,0
2016-04-21T22:55:35.238Z,0
2016-04-21T22:56:24.397Z,0
2016-04-21T22:57:32.821Z,0
2016-04-21T22:58:25.777Z,0
2016-04-21T22:59:25.608Z,0
2016-04-21T23:00:35.282Z,0
2016-04-21T23:02:34.554Z,0
2016-04-21T23:04:24.996Z,0
2016-04-21T23:05:25.421Z,0
2016-04-21T23:06:25.237Z,0
2016-04-21T23:08:36.382Z,0
2016-04-21T23:09:27.104Z,0
2016-04-21T23:11:24.562Z,0
2016-04-21T23:12:35.440Z,0
2016-04-21T23:14:25.367Z,0
2016-04-21T23:15:25.715Z,0
2016-04-21T23:16:26.294Z,0
2016-04-21T23:18:25.612Z,0
2016-04-21T23:19:25.615Z,0
2016-04-21T23:20:25.118Z,0
2016-04-21T23:21:23.996Z,0
2016-04-21T23:22:25.248Z,0
2016-04-21T23:23:26.001Z,0
2016-04-21T23:24:25.285Z,0
2016-04-21T23:25:24.881Z,0
2016-04-21T23:26:25.758Z,0
2016-04-21T23:27:26.308Z,0
2016-04-21T23:28:34.108Z,0
2016-04-21T23:29:24.158Z,0
2016-04-21T23:30:24.332Z,0
2016-04-21T23:31:24.101Z,0
2016-04-21T23:32:25.760Z,0
2016-04-21T23:33:24.418Z,0
2016-04-21T23:34:32.812Z,0
2016-04-21T23:35:24.815Z,0
2016-04-21T23:36:23.926Z,0
2016-04-21T23:37:24.335Z,0
2016-04-21T23:38:24.026Z,0
2016-04-21T23:39:23.841Z,0
2016-04-21T23:40:25.281Z,0
2016-04-21T23:41:34.503Z,0
2016-04-21T23:42:24.865Z,0
2016-04-21T23:43:25.086Z,0
2016-04-21T23:44:33.714Z,0
2016-04-21T23:45:25.342Z,0
2016-04-21T23:46:24.876Z,0
2016-04-21T23:47:26.300Z,0
2016-04-21T23:48:24.725Z,0
2016-04-21T23:49:24.712Z,0
2016-04-21T23:50:36.356Z,0
2016-04-21T23:51:24.717Z,0
2016-04-21T23:52:23.689Z,0
2016-04-21T23:53:24.351Z,0
2016-04-21T23:54:25.233Z,0
2016-04-21T23:55:23.517Z,0
2016-04-21T23:56:26.564Z,0
2016-04-21T23:59:22.582Z,0
